Time;durP1;ratioP1;P1;durP2;ratioP2;P2;SDS_P1;SDS_P2;PMS_P1;PMS_P2;Temp;Humidity;BMP_temperature;BMP_pressure;BME280_temperature;BME280_humidity;BME280_pressure;Samples;Min_cycle;Max_cycle;Signal;HPM_P1;HPM_P2
2022/09/20 00:04:19;;;;;;;3.60;1.47;;;;;;;11.30;85.20;101729.03;6077933;28;20236;-87
2022/09/20 00:08:27;;;;;;;2.03;0.80;;;;;;;11.30;85.68;101732.59;6233573;28;20223;-89
2022/09/20 00:12:20;;;;;;;1.17;1.07;;;;;;;11.16;86.04;101738.19;6287095;28;20228;-87
2022/09/20 00:16:08;;;;;;;3.43;1.53;;;;;;;11.08;86.67;101736.09;6271721;28;20238;-87
2022/09/20 00:19:33;;;;;;;3.20;1.50;;;;;;;11.14;86.85;101732.91;6299547;28;20227;-85
2022/09/20 00:22:54;;;;;;;10.17;2.70;;;;;;;11.20;86.52;101743.22;6293394;28;20796;-86
2022/09/20 00:26:16;;;;;;;1.20;1.10;;;;;;;11.20;86.48;101743.22;6299927;28;20242;-84
2022/09/20 00:29:37;;;;;;;1.80;1.13;;;;;;;11.19;86.30;101741.53;6302658;28;20597;-85
2022/09/20 00:33:00;;;;;;;1.70;0.87;;;;;;;11.14;86.64;101749.09;6303085;28;20218;-86
2022/09/20 00:36:20;;;;;;;2.07;1.27;;;;;;;11.13;87.10;101741.13;6296633;28;20267;-84
2022/09/20 00:39:41;;;;;;;3.43;1.57;;;;;;;11.11;86.20;101746.66;6300213;28;20227;-84
2022/09/20 00:43:02;;;;;;;5.00;1.30;;;;;;;11.10;86.47;101750.31;6289664;28;20230;-84
2022/09/20 00:46:28;;;;;;;6.73;1.17;;;;;;;11.01;87.01;101751.00;6276534;28;20625;-84
2022/09/20 00:50:02;;;;;;;6.57;1.63;;;;;;;10.98;87.27;101751.25;6308293;28;20227;-87
2022/09/20 00:53:27;;;;;;;1.77;1.13;;;;;;;11.06;87.57;101756.06;6303226;28;20230;-87
2022/09/20 00:56:49;;;;;;;5.43;1.77;;;;;;;11.02;87.99;101751.88;6304949;28;20226;-87
2022/09/20 01:00:23;;;;;;;2.30;1.43;;;;;;;11.04;87.51;101752.63;6295952;28;20609;-88
2022/09/20 01:03:46;;;;;;;3.20;1.23;;;;;;;11.04;87.01;101755.31;6265203;28;20226;-88
2022/09/20 01:07:22;;;;;;;2.93;1.20;;;;;;;11.04;87.52;101758.00;6272211;28;20222;-88
2022/09/20 01:10:44;;;;;;;3.70;1.53;;;;;;;11.02;87.35;101754.56;6253028;28;20227;-87
2022/09/20 01:14:05;;;;;;;1.93;1.00;;;;;;;10.99;88.06;101760.22;6292006;28;20230;-87
2022/09/20 01:17:29;;;;;;;4.33;1.83;;;;;;;10.97;87.53;101760.31;6296131;28;20231;-86
2022/09/20 01:20:51;;;;;;;2.30;1.97;;;;;;;10.97;87.72;101759.47;6302963;28;20317;-87
2022/09/20 01:24:22;;;;;;;6.33;1.80;;;;;;;10.96;87.07;101755.03;6284876;28;21861;-85
2022/09/20 01:27:47;;;;;;;4.03;1.53;;;;;;;10.94;88.14;101751.59;6289962;28;20218;-86
2022/09/20 01:31:14;;;;;;;9.13;1.67;;;;;;;10.87;88.14;101753.91;6301821;28;20226;-87
2022/09/20 01:34:38;;;;;;;8.47;1.33;;;;;;;10.87;87.49;101762.00;6304361;28;20596;-87
2022/09/20 01:38:14;;;;;;;1.33;1.00;;;;;;;10.78;88.24;101762.72;6302209;28;20789;-85
2022/09/20 01:41:41;;;;;;;3.13;1.50;;;;;;;10.80;88.09;101768.00;6295585;28;20314;-85
2022/09/20 01:45:13;;;;;;;2.37;1.53;;;;;;;10.85;87.89;101768.47;6292329;28;21076;-86
2022/09/20 01:48:39;;;;;;;1.47;1.30;;;;;;;10.80;87.70;101776.94;6304812;28;20238;-86
2022/09/20 01:52:44;;;;;;;2.30;1.07;;;;;;;10.79;87.46;101772.50;6300258;28;20231;-87
2022/09/20 01:56:31;;;;;;;3.40;1.33;;;;;;;10.71;88.06;101771.38;6291309;28;20278;-85
2022/09/20 02:00:08;;;;;;;3.93;1.60;;;;;;;10.72;87.68;101779.34;6292896;28;20218;-85
2022/09/20 02:03:57;;;;;;;2.40;1.43;;;;;;;10.70;87.46;101777.75;6296647;28;20251;-86
2022/09/20 02:07:43;;;;;;;4.27;2.23;;;;;;;10.66;87.62;101789.75;6301686;28;20226;-86
2022/09/20 02:11:10;;;;;;;5.60;2.47;;;;;;;10.58;87.39;101781.34;6285378;28;20306;-86
2022/09/20 02:14:45;;;;;;;1.40;0.93;;;;;;;10.55;87.69;101786.97;6287458;28;20584;-85
2022/09/20 02:18:20;;;;;;;2.50;1.90;;;;;;;10.54;88.01;101786.09;6285750;28;20235;-86
2022/09/20 02:21:50;;;;;;;1.53;1.13;;;;;;;10.51;87.87;101793.56;6296189;28;20259;-86
2022/09/20 02:25:26;;;;;;;1.90;1.00;;;;;;;10.47;87.91;101790.25;6277516;28;20238;-87
2022/09/20 02:29:08;;;;;;;3.93;1.60;;;;;;;10.50;87.79;101787.31;6274659;28;20510;-85
2022/09/20 02:32:50;;;;;;;1.87;1.57;;;;;;;10.55;87.68;101801.31;6305984;28;20226;-86
2022/09/20 02:36:27;;;;;;;1.13;0.90;;;;;;;10.50;87.64;101798.09;6296137;28;20267;-89
2022/09/20 02:40:04;;;;;;;2.87;1.13;;;;;;;10.53;87.45;101797.00;6302957;28;20230;-88
2022/09/20 02:43:31;;;;;;;3.07;1.50;;;;;;;10.33;88.18;101798.47;6302280;28;20235;-86
2022/09/20 02:47:00;;;;;;;1.03;0.93;;;;;;;10.33;88.00;101802.03;6311562;28;20222;-87
2022/09/20 02:50:31;;;;;;;1.60;1.47;;;;;;;10.34;87.43;101794.81;6303982;28;20222;-86
2022/09/20 02:54:05;;;;;;;4.97;1.73;;;;;;;10.25;87.25;101798.16;6294057;28;20659;-87
2022/09/20 02:57:38;;;;;;;2.23;1.17;;;;;;;10.23;87.95;101808.19;6271722;28;20556;-87
2022/09/20 03:05:10;;;;;;;2.77;1.67;;;;;;;10.18;87.58;101822.00;6302688;28;20290;-88
2022/09/20 03:08:51;;;;;;;5.10;1.37;;;;;;;10.10;88.37;101823.47;6265590;28;20208;-88
2022/09/20 03:26:20;;;;;;;4.07;1.10;;;;;;;10.06;87.02;101830.06;6228609;28;20320;-88
2022/09/20 03:30:13;;;;;;;2.50;1.60;;;;;;;10.02;87.38;101842.03;6280194;28;20313;-88
2022/09/20 03:33:47;;;;;;;2.10;1.27;;;;;;;9.88;87.62;101839.47;6274081;28;20238;-89
2022/09/20 03:37:58;;;;;;;1.90;1.20;;;;;;;9.88;87.47;101848.41;6288867;28;20226;-89
2022/09/20 03:45:35;;;;;;;1.60;1.20;;;;;;;9.80;87.75;101848.09;6455245;23;20234;-87
2022/09/20 03:49:40;;;;;;;2.20;1.03;;;;;;;9.84;87.47;101854.09;6176179;28;20226;-88
2022/09/20 03:53:34;;;;;;;2.07;1.00;;;;;;;9.82;87.59;101850.66;6197320;28;20245;-87
2022/09/20 04:07:09;;;;;;;1.13;1.03;;;;;;;9.80;86.98;101850.78;6046468;29;20252;-86
2022/09/20 04:10:51;;;;;;;3.63;1.30;;;;;;;9.83;86.40;101855.06;6153997;28;20317;-88
2022/09/20 04:14:29;;;;;;;2.20;1.40;;;;;;;9.82;86.47;101862.31;6166989;28;20474;-84
2022/09/20 04:17:58;;;;;;;1.63;1.53;;;;;;;9.79;87.14;101865.19;6179628;28;20241;-85
2022/09/20 04:21:28;;;;;;;0.83;0.83;;;;;;;9.78;86.94;101871.56;6169051;28;20511;-85
2022/09/20 04:24:56;;;;;;;2.20;1.40;;;;;;;9.76;86.64;101867.25;6179519;28;20253;-85
2022/09/20 04:28:22;;;;;;;2.13;1.73;;;;;;;9.65;87.09;101868.88;6175184;28;20251;-85
2022/09/20 04:31:50;;;;;;;4.47;1.60;;;;;;;9.64;87.10;101869.81;6180771;28;20249;-86
2022/09/20 04:39:18;;;;;;;1.83;1.17;;;;;;;9.56;87.73;101868.63;6173362;28;20280;-87
2022/09/20 04:43:22;;;;;;;2.00;1.37;;;;;;;9.58;87.75;101877.44;6180426;28;20218;-88
2022/09/20 04:47:02;;;;;;;2.60;1.47;;;;;;;9.45;87.53;101874.72;6147231;28;20238;-87
2022/09/20 04:50:44;;;;;;;21.23;14.37;;;;;;;9.53;87.45;101877.75;6161496;28;20519;-87
2022/09/20 04:54:47;;;;;;;9.60;6.90;;;;;;;9.55;87.34;101881.19;6149626;28;20243;-86
2022/09/20 04:58:39;;;;;;;4.13;2.67;;;;;;;9.55;86.92;101891.97;6148964;28;20241;-87
2022/09/20 05:02:50;;;;;;;1.40;1.30;;;;;;;9.51;87.18;101897.69;6152179;28;20262;-85
2022/09/20 05:06:42;;;;;;;2.53;1.63;;;;;;;9.54;86.70;101897.47;6152035;28;20584;-87
2022/09/20 05:10:33;;;;;;;1.60;1.50;;;;;;;9.50;87.60;101896.81;6144379;28;20238;-81
2022/09/20 05:14:23;;;;;;;5.43;1.70;;;;;;;9.54;87.27;101895.66;6138270;28;20234;-79
2022/09/20 05:18:04;;;;;;;2.17;1.30;;;;;;;9.57;86.94;101900.81;6150717;28;20235;-78
2022/09/20 05:22:18;;;;;;;1.60;1.40;;;;;;;9.52;87.38;101908.34;6150430;28;20234;-79
2022/09/20 05:25:55;;;;;;;2.27;2.07;;;;;;;9.57;86.98;101910.72;6121144;28;20277;-77
2022/09/20 05:29:26;;;;;;;1.37;1.20;;;;;;;9.47;87.45;101909.63;6124291;28;20590;-78
2022/09/20 05:32:55;;;;;;;1.27;1.17;;;;;;;9.59;87.00;101919.56;6138019;28;21635;-80
2022/09/20 05:36:23;;;;;;;3.53;1.40;;;;;;;9.64;87.13;101923.66;6151641;28;20227;-79
2022/09/20 05:39:53;;;;;;;1.03;0.80;;;;;;;9.68;86.84;101927.88;6146752;28;20328;-78
2022/09/20 05:43:19;;;;;;;2.07;1.00;;;;;;;9.73;86.82;101930.25;6151355;28;20233;-78
2022/09/20 05:46:53;;;;;;;1.70;1.20;;;;;;;9.79;87.29;101928.94;6144653;28;20317;-78
2022/09/20 05:50:28;;;;;;;2.27;1.00;;;;;;;9.85;86.52;101939.31;6134520;28;20230;-80
2022/09/20 05:54:24;;;;;;;4.73;3.50;;;;;;;9.95;86.35;101943.13;6147146;28;20230;-79
2022/09/20 05:58:00;;;;;;;3.83;2.23;;;;;;;9.99;86.20;101948.16;6146773;28;20250;-79
2022/09/20 06:01:28;;;;;;;6.40;5.13;;;;;;;9.98;86.54;101951.84;6142110;28;20243;-77
2022/09/20 06:04:58;;;;;;;10.33;5.00;;;;;;;10.00;86.37;101952.59;6142756;28;20873;-79
2022/09/20 06:08:44;;;;;;;2.37;2.17;;;;;;;9.96;86.58;101955.59;6149786;28;20514;-78
2022/09/20 06:12:29;;;;;;;3.13;1.87;;;;;;;10.08;86.51;101947.53;6150632;28;20318;-77
2022/09/20 06:15:58;;;;;;;1.47;1.00;;;;;;;10.21;86.45;101955.66;6153554;28;20230;-79
2022/09/20 06:19:32;;;;;;;1.63;0.90;;;;;;;10.33;86.17;101952.09;6185816;28;20226;-82
2022/09/20 06:22:57;;;;;;;2.07;1.97;;;;;;;10.33;85.90;101952.09;6162477;28;20958;-79
2022/09/20 06:26:23;;;;;;;1.20;1.10;;;;;;;10.48;86.28;101950.13;6162008;28;20234;-81
2022/09/20 06:29:52;;;;;;;0.87;0.80;;;;;;;10.50;86.06;101959.84;6165194;28;20226;-82
2022/09/20 06:33:16;;;;;;;8.87;1.40;;;;;;;10.61;85.50;101959.97;6153130;28;20229;-82
2022/09/20 06:44:15;;;;;;;1.07;0.90;;;;;;;10.87;85.47;101971.53;6162768;28;20231;-80
2022/09/20 06:47:36;;;;;;;1.00;0.87;;;;;;;11.02;85.02;101963.22;6163710;28;20228;-83
2022/09/20 06:51:06;;;;;;;5.47;1.23;;;;;;;11.12;85.10;101964.25;6166197;28;20231;-88
2022/09/20 06:54:27;;;;;;;4.80;2.00;;;;;;;11.18;83.78;101969.19;6159939;28;20230;-83
2022/09/20 06:57:50;;;;;;;1.00;0.80;;;;;;;11.33;84.49;101974.44;6160734;28;20238;-82
2022/09/20 07:01:12;;;;;;;1.93;1.00;;;;;;;11.46;83.00;101970.72;6160505;28;20227;-83
2022/09/20 07:04:35;;;;;;;6.20;3.47;;;;;;;11.51;82.67;101971.22;6158935;28;20663;-86
2022/09/20 07:07:57;;;;;;;6.33;4.67;;;;;;;11.63;82.68;101988.34;6161271;28;20547;-82
2022/09/20 07:11:18;;;;;;;3.53;3.10;;;;;;;11.74;82.11;101985.72;6164389;28;20234;-83
2022/09/20 07:14:41;;;;;;;7.77;2.40;;;;;;;11.75;82.63;101982.03;6155281;28;20234;-84
2022/09/20 07:18:02;;;;;;;1.30;1.20;;;;;;;11.96;82.25;101983.09;6164511;28;20223;-81
2022/09/20 07:21:24;;;;;;;3.90;2.90;;;;;;;12.08;81.60;101998.38;6164409;28;20231;-81
2022/09/20 07:24:45;;;;;;;3.33;2.83;;;;;;;12.06;81.67;101994.09;6173822;28;20235;-84
2022/09/20 07:28:06;;;;;;;2.20;0.90;;;;;;;12.24;80.95;102000.75;6166152;28;20230;-78
2022/09/20 07:31:31;;;;;;;1.00;0.70;;;;;;;12.33;79.43;102000.88;6161582;28;20235;-77
2022/09/20 07:34:51;;;;;;;1.07;0.80;;;;;;;12.35;79.30;102006.19;6160051;28;20234;-79
2022/09/20 07:38:13;;;;;;;1.83;1.00;;;;;;;12.46;78.48;102008.91;6157799;28;20238;-79
2022/09/20 07:41:34;;;;;;;1.60;1.00;;;;;;;12.59;78.50;102013.25;6155323;28;20227;-80
2022/09/20 07:44:55;;;;;;;4.40;1.57;;;;;;;12.64;77.42;102011.00;6160752;28;20589;-82
2022/09/20 07:48:17;;;;;;;3.50;0.93;;;;;;;12.74;77.32;102006.63;6163415;28;20245;-82
2022/09/20 07:51:37;;;;;;;3.07;1.97;;;;;;;12.80;76.46;102016.94;6162231;28;20306;-81
2022/09/20 07:54:58;;;;;;;4.73;0.97;;;;;;;12.79;75.93;102020.63;6158952;28;20598;-82
2022/09/20 07:58:19;;;;;;;3.63;2.60;;;;;;;12.97;75.90;102026.44;6182537;28;20238;-80
2022/09/20 08:01:44;;;;;;;3.43;2.33;;;;;;;13.20;75.73;102032.72;6154802;28;20239;-81
2022/09/20 08:05:07;;;;;;;4.13;1.73;;;;;;;13.24;75.48;102026.94;6155891;28;20242;-79
2022/09/20 08:08:31;;;;;;;3.43;1.30;;;;;;;13.32;74.54;102031.72;6164583;28;20622;-78
2022/09/20 08:11:52;;;;;;;1.60;0.83;;;;;;;13.46;73.75;102031.44;6162917;28;20230;-80
2022/09/20 08:15:13;;;;;;;1.93;1.30;;;;;;;13.40;73.85;102034.66;6149190;28;20220;-79
2022/09/20 08:18:35;;;;;;;5.73;1.00;;;;;;;13.50;73.74;102046.44;6158397;28;20229;-79
2022/09/20 08:21:57;;;;;;;1.33;1.10;;;;;;;13.52;73.12;102039.91;6161587;28;20230;-78
2022/09/20 08:25:18;;;;;;;6.30;1.20;;;;;;;13.67;72.86;102042.34;6155194;28;20223;-80
2022/09/20 08:29:10;;;;;;;1.43;1.03;;;;;;;13.76;71.89;102045.16;6155436;28;20242;-77
2022/09/20 08:32:47;;;;;;;3.30;1.47;;;;;;;13.86;70.96;102046.09;6145076;28;20238;-78
2022/09/20 08:36:13;;;;;;;3.03;1.30;;;;;;;13.95;70.33;102041.75;6186408;23;20585;-78
2022/09/20 08:39:36;;;;;;;1.43;1.33;;;;;;;14.00;70.34;102044.94;6160029;28;20239;-82
2022/09/20 08:42:58;;;;;;;1.53;0.80;;;;;;;14.06;70.02;102042.56;6173593;28;20235;-79
2022/09/20 08:46:23;;;;;;;2.97;1.20;;;;;;;14.28;70.81;102044.31;6163337;28;20230;-78
2022/09/20 08:49:44;;;;;;;6.83;2.97;;;;;;;14.33;69.41;102045.66;6164919;28;20234;-79
2022/09/20 08:53:05;;;;;;;3.60;1.50;;;;;;;14.42;68.37;102052.16;6163587;28;20598;-79
2022/09/20 08:56:32;;;;;;;1.97;1.70;;;;;;;14.39;68.90;102052.44;6167510;28;20326;-78
2022/09/20 08:59:53;;;;;;;5.00;1.50;;;;;;;14.46;67.58;102056.31;6163366;28;20584;-79
2022/09/20 09:03:15;;;;;;;6.30;2.23;;;;;;;14.45;65.78;102059.19;6166272;28;20536;-78
2022/09/20 09:06:36;;;;;;;2.50;0.90;;;;;;;14.50;65.04;102060.50;6162089;28;20223;-79
2022/09/20 09:09:57;;;;;;;1.00;0.73;;;;;;;14.71;65.20;102068.63;6164136;28;20942;-79
2022/09/20 09:13:24;;;;;;;1.00;0.90;;;;;;;14.69;63.88;102065.19;6154582;28;20252;-78
2022/09/20 09:16:45;;;;;;;3.23;1.00;;;;;;;14.69;65.51;102065.19;6159646;28;20250;-80
2022/09/20 09:20:15;;;;;;;3.67;1.00;;;;;;;14.96;64.13;102062.75;6153673;28;20234;-78
2022/09/20 09:23:45;;;;;;;5.97;1.37;;;;;;;15.32;61.94;102058.63;6164082;28;20328;-79
2022/09/20 09:27:13;;;;;;;1.73;1.10;;;;;;;16.09;62.20;102062.38;6161643;28;20253;-78
2022/09/20 09:30:38;;;;;;;2.27;1.30;;;;;;;16.30;60.14;102063.97;6161134;28;20233;-80
2022/09/20 09:33:59;;;;;;;8.53;1.10;;;;;;;16.32;60.48;102067.41;6156609;28;20227;-79
2022/09/20 09:37:25;;;;;;;6.60;1.80;;;;;;;16.37;59.13;102073.28;6151043;28;20529;-84
2022/09/20 09:40:51;;;;;;;1.10;1.00;;;;;;;16.38;58.90;102063.25;6158329;28;20560;-85
2022/09/20 09:44:23;;;;;;;1.10;1.00;;;;;;;16.05;59.31;102071.84;6162342;28;20230;-84
2022/09/20 09:47:49;;;;;;;1.43;1.30;;;;;;;16.24;58.68;102067.28;6167174;28;20232;-85
2022/09/20 09:51:14;;;;;;;2.50;0.73;;;;;;;16.68;58.37;102072.13;6151383;28;20242;-84
2022/09/20 09:54:38;;;;;;;1.97;0.87;;;;;;;17.44;59.02;102073.72;6164381;28;20238;-82
2022/09/20 09:58:07;;;;;;;2.57;0.80;;;;;;;17.48;56.40;102069.66;6164201;28;20675;-82
2022/09/20 10:01:38;;;;;;;10.13;3.37;;;;;;;17.67;55.41;102073.34;6132910;28;20516;-80
2022/09/20 10:05:05;;;;;;;1.40;0.67;;;;;;;17.47;52.29;102070.69;6157494;28;20226;-80
2022/09/20 10:08:36;;;;;;;1.20;1.07;;;;;;;18.40;52.19;102069.50;6162360;28;20234;-84
2022/09/20 10:12:11;;;;;;;2.37;0.90;;;;;;;18.95;50.50;102062.75;6159996;28;20620;-86
2022/09/20 10:15:39;;;;;;;1.90;0.90;;;;;;;18.29;51.76;102063.25;6157875;28;20226;-82
2022/09/20 10:19:10;;;;;;;0.57;0.55;;;;;;;18.38;51.00;102064.16;6155307;28;20242;-82
2022/09/20 10:22:39;;;;;;;3.13;0.88;;;;;;;18.75;48.13;102064.88;6152967;28;20225;-76
2022/09/20 10:26:08;;;;;;;2.17;0.90;;;;;;;19.37;47.93;102062.84;6155264;28;20230;-78
2022/09/20 10:29:44;;;;;;;2.85;1.05;;;;;;;19.27;45.69;102054.75;6155994;28;20234;-78
2022/09/20 10:33:15;;;;;;;2.15;0.95;;;;;;;20.06;46.32;102068.03;6157207;28;20230;-78
2022/09/20 10:36:46;;;;;;;1.60;0.90;;;;;;;22.65;40.86;102058.78;6162109;28;20229;-80
2022/09/20 10:40:23;;;;;;;1.65;0.80;;;;;;;26.71;32.54;102047.44;6159457;28;20230;-78
2022/09/20 10:43:57;;;;;;;1.95;0.70;;;;;;;27.62;30.70;102037.28;6163432;28;20884;-78
2022/09/20 10:47:25;;;;;;;2.28;0.63;;;;;;;29.29;27.08;102044.81;6166850;28;20238;-78
2022/09/20 10:50:51;;;;;;;2.85;0.73;;;;;;;27.02;30.67;102059.78;6158335;28;20301;-79
2022/09/20 10:54:26;;;;;;;1.05;0.57;;;;;;;22.08;38.30;102069.31;6156615;28;20242;-79
2022/09/20 10:58:12;;;;;;;4.13;0.95;;;;;;;19.94;43.04;102075.72;6160332;28;20684;-78
2022/09/20 11:01:42;;;;;;;2.53;0.90;;;;;;;27.12;30.25;102055.50;6158832;28;20374;-79
2022/09/20 11:05:23;;;;;;;2.72;0.65;;;;;;;29.86;27.19;102057.41;6167845;28;20230;-80
2022/09/20 11:08:49;;;;;;;0.75;0.60;;;;;;;32.29;22.48;102055.50;6166752;28;20230;-79
2022/09/20 11:12:16;;;;;;;2.30;0.50;;;;;;;31.34;22.13;102056.25;6162351;28;20254;-80
2022/09/20 11:15:43;;;;;;;1.58;1.10;;;;;;;33.08;21.71;102056.34;6161526;28;20222;-80
2022/09/20 11:19:11;;;;;;;2.03;1.05;;;;;;;33.10;21.52;102056.94;6166205;28;20297;-81
2022/09/20 11:22:38;;;;;;;1.90;1.40;;;;;;;30.36;24.07;102067.19;6161396;28;20670;-81
2022/09/20 11:26:07;;;;;;;1.27;0.77;;;;;;;31.09;23.26;102076.03;6165202;28;20292;-81
2022/09/20 11:29:35;;;;;;;5.25;3.50;;;;;;;31.89;23.27;102077.03;6165500;28;20233;-82
2022/09/20 11:33:06;;;;;;;4.07;2.65;;;;;;;33.03;20.57;102062.72;6166254;28;20257;-81
2022/09/20 11:36:32;;;;;;;3.97;1.77;;;;;;;33.29;21.25;102061.16;6158244;28;20238;-81
2022/09/20 11:39:54;;;;;;;3.83;0.68;;;;;;;34.41;20.00;102058.63;6162457;28;20242;-81
2022/09/20 11:43:19;;;;;;;1.85;1.00;;;;;;;31.88;22.06;102068.88;6165897;28;20242;-83
2022/09/20 11:46:47;;;;;;;0.90;0.70;;;;;;;26.48;29.18;102079.34;6163893;28;20226;-80
2022/09/20 11:50:41;;;;;;;1.63;0.70;;;;;;;23.06;33.82;102087.56;6161194;28;20227;-79
2022/09/20 11:54:22;;;;;;;4.68;2.08;;;;;;;23.28;34.57;102083.88;6159732;28;20242;-81
2022/09/20 11:57:43;;;;;;;1.83;0.70;;;;;;;29.09;26.41;102078.34;6165194;28;20302;-80
2022/09/20 12:01:13;;;;;;;5.35;1.40;;;;;;;32.28;21.54;102076.16;6165514;28;20253;-80
2022/09/20 12:04:36;;;;;;;1.95;0.60;;;;;;;32.71;20.39;102066.34;6166049;28;20230;-80
2022/09/20 12:08:02;;;;;;;1.25;0.82;;;;;;;33.87;19.83;102074.53;6163441;28;20227;-81
2022/09/20 12:11:30;;;;;;;3.00;1.27;;;;;;;33.43;19.46;102070.00;6163197;28;20483;-81
2022/09/20 12:14:55;;;;;;;3.45;1.33;;;;;;;33.27;19.96;102074.53;6164377;28;20503;-81
2022/09/20 12:18:59;;;;;;;1.30;0.38;;;;;;;34.45;18.94;102068.19;6167948;28;20613;-83
2022/09/20 12:22:28;;;;;;;0.90;0.80;;;;;;;33.54;19.84;102069.06;6156536;28;20231;-81
2022/09/20 12:26:01;;;;;;;2.47;0.60;;;;;;;29.34;24.13;102072.78;6168799;28;20229;-81
2022/09/20 12:30:14;;;;;;;3.22;1.55;;;;;;;30.41;23.25;102066.47;6166246;28;20317;-82
2022/09/20 12:33:56;;;;;;;1.25;0.55;;;;;;;33.32;19.35;102065.34;6169479;28;20956;-82
2022/09/20 12:37:22;;;;;;;2.22;0.55;;;;;;;32.33;19.23;102064.25;6166513;28;20226;-83
2022/09/20 12:41:00;;;;;;;3.38;0.88;;;;;;;33.51;18.86;102066.78;6160945;28;20246;-83
2022/09/20 12:44:26;;;;;;;1.90;0.40;;;;;;;34.00;18.66;102067.72;6150874;28;20242;-83
2022/09/20 12:47:56;;;;;;;1.58;0.70;;;;;;;32.71;19.82;102060.75;6171251;28;20523;-82
2022/09/20 12:55:00;;;;;;;1.75;0.90;;;;;;;32.19;20.32;102072.06;6166170;28;20227;-84
2022/09/20 12:58:45;;;;;;;0.50;0.50;;;;;;;24.93;29.78;102080.09;6140582;28;20234;-82
2022/09/20 13:02:36;;;;;;;2.42;0.73;;;;;;;28.13;25.75;102070.53;6163623;28;20332;-82
2022/09/20 13:06:25;;;;;;;2.13;1.33;;;;;;;23.05;31.68;102083.13;6164229;28;20230;-81
2022/09/20 13:09:48;;;;;;;2.78;1.02;;;;;;;26.12;28.46;102077.81;6164270;28;20473;-80
2022/09/20 13:13:40;;;;;;;2.58;0.52;;;;;;;28.94;23.58;102066.75;6165586;28;20348;-83
2022/09/20 13:17:16;;;;;;;1.00;0.77;;;;;;;31.21;21.20;102062.13;6155695;28;20609;-83
2022/09/20 13:20:38;;;;;;;2.88;0.90;;;;;;;31.69;21.20;102064.59;6164208;28;20237;-85
2022/09/20 13:24:01;;;;;;;8.40;0.88;;;;;;;31.72;19.93;102061.31;6164635;28;20586;-82
2022/09/20 13:27:25;;;;;;;1.60;0.50;;;;;;;32.16;19.98;102064.22;6171476;28;20238;-84
2022/09/20 13:30:48;;;;;;;0.93;0.57;;;;;;;32.75;20.29;102065.56;6155757;28;20230;-84
2022/09/20 13:34:20;;;;;;;4.57;0.60;;;;;;;25.86;26.61;102082.38;6165801;28;20329;-85
2022/09/20 13:37:47;;;;;;;3.20;0.50;;;;;;;22.05;34.45;102084.25;6163062;28;20295;-81
2022/09/20 13:41:10;;;;;;;2.67;0.65;;;;;;;20.73;36.29;102097.03;6159591;28;20910;-81
2022/09/20 13:44:33;;;;;;;1.67;1.33;;;;;;;20.46;37.46;102090.84;6163330;28;20755;-80
2022/09/20 13:48:00;;;;;;;1.20;0.90;;;;;;;21.07;38.36;102090.31;6161641;28;20349;-83
2022/09/20 13:51:25;;;;;;;0.70;0.65;;;;;;;26.74;28.60;102080.25;6164001;28;20613;-80
2022/09/20 13:54:47;;;;;;;1.25;0.50;;;;;;;28.13;25.01;102076.94;6163760;28;20234;-82
2022/09/20 13:58:20;;;;;;;0.38;0.30;;;;;;;29.55;22.99;102071.47;6162046;28;20238;-81
2022/09/20 14:01:48;;;;;;;1.58;0.40;;;;;;;30.36;21.80;102069.97;6162805;28;20243;-82
2022/09/20 14:05:17;;;;;;;1.45;0.40;;;;;;;29.92;23.22;102073.16;6161665;28;20226;-82
2022/09/20 14:08:43;;;;;;;0.52;0.40;;;;;;;29.07;23.80;102074.09;6162914;28;20227;-81
2022/09/20 14:12:05;;;;;;;3.70;0.50;;;;;;;29.48;23.72;102073.44;6165291;28;20234;-80
2022/09/20 14:15:36;;;;;;;2.50;0.40;;;;;;;29.49;23.94;102072.38;6166341;28;20239;-82
2022/09/20 14:18:58;;;;;;;1.25;0.40;;;;;;;29.80;22.30;102070.31;6153351;28;20222;-82
2022/09/20 14:22:25;;;;;;;1.33;0.77;;;;;;;29.94;22.06;102070.97;6162088;28;20672;-82
2022/09/20 14:26:05;;;;;;;2.03;0.50;;;;;;;28.32;25.18;102064.00;6160478;28;20227;-82
2022/09/20 14:29:37;;;;;;;0.28;0.28;;;;;;;24.34;29.01;102084.22;6157649;28;20231;-80
2022/09/20 14:32:59;;;;;;;2.08;0.75;;;;;;;24.51;29.24;102083.75;6166470;28;20230;-80
2022/09/20 14:36:22;;;;;;;0.55;0.25;;;;;;;23.58;30.97;102091.13;6164867;28;20223;-80
2022/09/20 14:39:51;;;;;;;2.50;0.70;;;;;;;22.21;34.40;102092.44;6165058;28;20597;-80
2022/09/20 14:43:26;;;;;;;2.92;0.95;;;;;;;22.80;34.17;102082.50;6164513;28;20237;-81
2022/09/20 14:46:47;;;;;;;0.98;0.77;;;;;;;22.78;33.00;102092.81;6162903;28;20222;-79
2022/09/20 14:50:25;;;;;;;2.17;0.50;;;;;;;24.04;32.92;102091.72;6174863;28;20238;-80
2022/09/20 14:53:48;;;;;;;0.70;0.70;;;;;;;24.18;30.86;102084.44;6162542;28;21430;-79
2022/09/20 14:57:12;;;;;;;0.38;0.38;;;;;;;24.12;31.70;102090.75;6148082;28;20230;-79
2022/09/20 15:00:47;;;;;;;1.27;1.17;;;;;;;22.88;32.75;102093.41;6164067;28;20223;-79
2022/09/20 15:04:17;;;;;;;1.92;1.15;;;;;;;23.26;31.34;102090.63;6172691;28;20222;-79
2022/09/20 15:07:39;;;;;;;2.97;0.68;;;;;;;22.80;32.22;102087.16;6173612;28;20226;-79
2022/09/20 15:11:00;;;;;;;2.60;0.70;;;;;;;22.80;33.66;102092.66;6174920;28;20242;-81
2022/09/20 15:14:22;;;;;;;0.73;0.73;;;;;;;21.55;34.50;102097.53;6171141;28;20223;-80
2022/09/20 15:17:44;;;;;;;0.70;0.40;;;;;;;21.89;35.08;102091.75;6153777;28;20235;-77
2022/09/20 15:21:05;;;;;;;2.65;0.68;;;;;;;21.63;34.25;102100.28;6167857;28;20806;-77
2022/09/20 15:24:27;;;;;;;2.15;0.68;;;;;;;21.79;34.22;102102.94;6179040;28;20226;-78
2022/09/20 15:27:49;;;;;;;0.95;0.40;;;;;;;22.14;35.19;102101.56;6185304;28;20229;-78
2022/09/20 15:31:13;;;;;;;1.38;0.50;;;;;;;21.95;34.02;102105.63;6180811;28;20278;-77
2022/09/20 15:34:34;;;;;;;0.43;0.40;;;;;;;21.88;33.70;102107.38;6180998;28;20234;-78
2022/09/20 15:37:55;;;;;;;1.83;1.42;;;;;;;21.92;33.48;102113.38;6178499;28;20223;-78
2022/09/20 15:41:17;;;;;;;0.52;0.38;;;;;;;21.92;33.54;102116.13;6176225;28;20637;-77
2022/09/20 15:44:38;;;;;;;2.22;0.70;;;;;;;22.13;33.76;102108.94;6169248;28;20230;-79
2022/09/20 15:48:01;;;;;;;0.93;0.93;;;;;;;22.14;34.72;102113.41;6180890;28;20242;-77
2022/09/20 15:51:23;;;;;;;0.98;0.98;;;;;;;22.05;35.08;102122.72;6156429;28;20222;-78
2022/09/20 15:54:44;;;;;;;1.75;1.55;;;;;;;21.16;35.42;102119.44;6166522;28;20309;-78
2022/09/20 15:58:06;;;;;;;0.73;0.60;;;;;;;21.00;35.50;102121.34;6164149;28;20227;-78
2022/09/20 16:01:28;;;;;;;0.40;0.40;;;;;;;21.12;36.67;102122.72;6145863;28;20238;-77
2022/09/20 16:04:54;;;;;;;1.00;0.75;;;;;;;20.96;37.58;102128.19;6153612;28;20446;-79
2022/09/20 16:08:15;;;;;;;1.48;0.75;;;;;;;21.14;38.13;102131.63;6159086;28;20341;-79
2022/09/20 16:11:37;;;;;;;5.47;0.85;;;;;;;21.09;36.61;102132.13;6147797;28;20301;-82
2022/09/20 16:14:59;;;;;;;2.13;0.80;;;;;;;20.81;37.72;102129.91;6160185;28;20285;-78
2022/09/20 16:22:00;;;;;;;1.10;0.60;;;;;;;20.42;38.04;102138.78;6151704;28;20554;-77
2022/09/20 16:25:21;;;;;;;0.68;0.50;;;;;;;20.36;38.87;102139.47;6159441;28;20250;-79
2022/09/20 16:28:44;;;;;;;0.52;0.52;;;;;;;19.74;38.55;102140.81;6167569;28;20226;-80
2022/09/20 16:32:05;;;;;;;1.95;0.80;;;;;;;20.16;39.09;102146.25;6160255;28;20956;-81
2022/09/20 16:35:26;;;;;;;0.60;0.60;;;;;;;19.93;39.86;102147.91;6160417;28;20226;-79
2022/09/20 16:38:48;;;;;;;3.65;1.95;;;;;;;19.79;40.35;102143.94;6159191;28;20270;-79
2022/09/20 16:42:12;;;;;;;1.98;1.00;;;;;;;19.54;40.17;102163.13;6151211;28;20271;-78
2022/09/20 16:45:33;;;;;;;1.60;0.82;;;;;;;19.20;40.73;102157.56;6159654;28;20321;-77
2022/09/20 16:48:55;;;;;;;0.73;0.40;;;;;;;18.92;42.26;102164.22;6162063;28;20237;-78
2022/09/20 16:52:16;;;;;;;0.85;0.32;;;;;;;18.54;44.01;102170.03;6164817;28;20616;-79
2022/09/20 16:55:44;;;;;;;1.05;0.57;;;;;;;18.38;43.69;102171.53;6168425;28;20227;-78
2022/09/20 16:59:06;;;;;;;0.40;0.40;;;;;;;18.15;44.04;102174.84;6162497;28;20233;-79
2022/09/20 17:02:30;;;;;;;2.55;0.93;;;;;;;18.18;43.83;102177.28;6161462;28;20238;-78
2022/09/20 17:05:50;;;;;;;0.73;0.60;;;;;;;18.00;45.54;102176.41;6167922;28;20261;-79
2022/09/20 17:09:13;;;;;;;0.90;0.60;;;;;;;18.01;46.62;102180.84;6137921;28;20242;-78
2022/09/20 17:12:40;;;;;;;1.67;0.57;;;;;;;17.98;46.89;102183.88;6163935;28;20250;-79